Time;durP1;ratioP1;P1;durP2;ratioP2;P2;SDS_P1;SDS_P2;PMS_P1;PMS_P2;Temp;Humidity;BMP_temperature;BMP_pressure;BME280_temperature;BME280_humidity;BME280_pressure;Samples;Min_cycle;Max_cycle;Signal;HPM_P1;HPM_P2
2022/08/09 00:01:35;;;;;;;4.10;1.70;;;;;;;12.95;100.00;155775.88;4899680;29;20122;-78
2022/08/09 00:04:01;;;;;;;4.97;1.83;;;;;;;12.93;100.00;155770.75;4899915;29;20056;-78
2022/08/09 00:06:27;;;;;;;5.80;1.90;;;;;;;12.89;100.00;155760.47;4877816;29;20080;-78
2022/08/09 00:08:53;;;;;;;4.78;1.83;;;;;;;12.82;100.00;155743.75;4910248;29;20036;-78
2022/08/09 00:11:20;;;;;;;2.60;1.48;;;;;;;12.91;100.00;155766.88;4914694;29;20032;-78
2022/08/09 00:13:46;;;;;;;3.20;1.65;;;;;;;12.87;100.00;155756.59;4898545;29;20028;-78
2022/08/09 00:16:11;;;;;;;4.40;1.83;;;;;;;12.80;100.00;155739.88;4891463;29;20040;-77
2022/08/09 00:18:37;;;;;;;2.50;1.77;;;;;;;12.76;100.00;155728.34;4896472;29;20820;-78
2022/08/09 00:21:04;;;;;;;7.05;2.00;;;;;;;12.76;100.00;155729.63;4913940;29;20032;-77
2022/08/09 00:23:30;;;;;;;5.30;1.98;;;;;;;12.71;100.00;155716.75;4897464;29;20043;-75
2022/08/09 00:25:56;;;;;;;1.98;1.77;;;;;;;12.71;100.00;155716.75;4909885;29;20115;-77
2022/08/09 00:28:22;;;;;;;4.15;1.83;;;;;;;12.64;100.00;155698.81;4893061;29;21053;-77
2022/08/09 00:30:51;;;;;;;7.72;1.75;;;;;;;12.58;100.00;155684.69;4897933;29;20582;-77
2022/08/09 00:33:18;;;;;;;4.72;1.95;;;;;;;12.53;100.00;155670.56;4929801;29;20047;-77
2022/08/09 00:35:44;;;;;;;4.40;2.25;;;;;;;12.49;100.00;155661.56;4898083;29;20118;-76
2022/08/09 00:38:11;;;;;;;3.42;1.88;;;;;;;12.47;100.00;155656.44;4913406;29;20573;-77
2022/08/09 00:40:38;;;;;;;5.75;1.55;;;;;;;12.39;100.00;155635.84;4912828;29;20127;-77
2022/08/09 00:43:04;;;;;;;3.75;2.20;;;;;;;12.34;100.00;155624.31;4913156;29;20035;-78
2022/08/09 00:45:30;;;;;;;4.40;2.08;;;;;;;12.31;100.00;155616.56;4897466;29;20032;-77
2022/08/09 00:47:55;;;;;;;4.75;2.55;;;;;;;12.34;100.00;155622.97;4901926;29;20087;-76
2022/08/09 00:50:22;;;;;;;3.78;1.90;;;;;;;12.28;100.00;155608.84;4896988;29;20044;-78
2022/08/09 00:52:47;;;;;;;6.65;2.00;;;;;;;12.30;100.00;155612.72;4897364;29;20043;-77
2022/08/09 00:55:13;;;;;;;4.30;1.80;;;;;;;12.31;100.00;155616.56;4913118;29;20123;-78
2022/08/09 00:57:39;;;;;;;3.92;1.80;;;;;;;12.31;100.00;155616.56;4921717;29;20043;-76
2022/08/09 01:00:09;;;;;;;4.72;2.13;;;;;;;12.25;100.00;155602.44;4910832;29;20185;-76
2022/08/09 01:02:41;;;;;;;4.15;1.92;;;;;;;12.29;100.00;155610.19;4902179;29;20036;-78
2022/08/09 01:05:15;;;;;;;3.83;1.98;;;;;;;12.26;100.00;155605.03;4916115;29;20035;-76
2022/08/09 01:08:09;;;;;;;10.52;2.10;;;;;;;12.21;100.00;155592.19;4916001;29;20044;-77
2022/08/09 01:10:44;;;;;;;2.67;2.00;;;;;;;12.17;100.00;155581.91;4910595;29;20126;-78
2022/08/09 01:13:30;;;;;;;4.53;1.90;;;;;;;12.10;100.00;155563.94;4894586;29;20032;-77
2022/08/09 01:15:58;;;;;;;3.78;2.00;;;;;;;12.02;100.00;155543.41;4896524;29;20502;-78
2022/08/09 01:18:29;;;;;;;3.65;1.80;;;;;;;12.03;100.00;155545.94;4890515;29;20039;-78
2022/08/09 01:21:13;;;;;;;3.45;2.10;;;;;;;11.97;100.00;155530.56;4897983;29;20042;-79
2022/08/09 01:23:58;;;;;;;4.57;2.35;;;;;;;11.99;100.00;155535.69;4891974;29;20051;-78
2022/08/09 01:26:53;;;;;;;5.85;2.30;;;;;;;11.98;100.00;155533.09;4912896;29;20139;-80
2022/08/09 01:29:27;;;;;;;4.28;2.75;;;;;;;11.97;100.00;155530.56;4898410;29;20071;-77
2022/08/09 01:31:56;;;;;;;4.60;2.42;;;;;;;11.99;100.00;155536.94;4896852;29;20406;-77
2022/08/09 01:34:26;;;;;;;6.95;2.70;;;;;;;11.99;100.00;155535.69;4927246;29;20052;-77
2022/08/09 01:36:55;;;;;;;7.55;2.30;;;;;;;11.93;100.00;155520.28;4896687;29;20246;-77
2022/08/09 01:39:23;;;;;;;3.65;2.20;;;;;;;11.95;100.00;155525.41;4893463;29;20519;-77
2022/08/09 01:41:51;;;;;;;5.45;2.33;;;;;;;11.92;100.00;155517.69;4897206;29;20451;-78
2022/08/09 01:44:18;;;;;;;2.65;2.22;;;;;;;11.99;100.00;155536.94;4928191;29;20051;-78
2022/08/09 01:46:45;;;;;;;5.65;2.20;;;;;;;11.99;100.00;155535.69;4880321;29;20041;-78
2022/08/09 01:49:13;;;;;;;4.63;2.78;;;;;;;11.86;100.00;155504.78;4911747;29;20040;-79
2022/08/09 01:51:42;;;;;;;5.22;2.45;;;;;;;11.87;100.00;155506.13;4930075;29;20040;-77
2022/08/09 01:54:09;;;;;;;6.00;2.88;;;;;;;11.79;100.00;155485.53;4917477;29;20035;-77
2022/08/09 01:56:38;;;;;;;4.68;2.30;;;;;;;11.77;100.00;155480.41;4916305;29;20040;-77
2022/08/09 01:59:08;;;;;;;8.50;2.45;;;;;;;11.73;100.00;155471.41;4912580;29;20063;-77
2022/08/09 02:01:36;;;;;;;5.50;2.50;;;;;;;11.81;100.00;155490.66;4913854;29;20508;-78
2022/08/09 02:04:03;;;;;;;8.88;3.33;;;;;;;11.83;100.00;155495.84;4915441;29;20888;-79
2022/08/09 02:09:18;;;;;;;6.63;2.40;;;;;;;11.69;100.00;155462.44;4898398;29;20043;-78
2022/08/09 02:11:44;;;;;;;4.05;2.55;;;;;;;11.68;100.00;155459.88;4914754;29;20045;-77
2022/08/09 02:14:11;;;;;;;3.58;2.40;;;;;;;11.69;100.00;155461.16;4908993;29;20035;-77
2022/08/09 02:16:38;;;;;;;7.97;2.72;;;;;;;11.67;100.00;155457.28;4916581;29;20502;-78
2022/08/09 02:19:04;;;;;;;3.30;2.72;;;;;;;11.67;100.00;155456.03;4915552;29;20040;-77
2022/08/09 02:21:40;;;;;;;5.43;2.70;;;;;;;11.67;100.00;155457.28;4897373;29;20118;-77
2022/08/09 02:24:10;;;;;;;7.95;2.80;;;;;;;11.62;100.00;155444.50;4893135;29;20066;-77
2022/08/09 02:26:37;;;;;;;4.05;2.60;;;;;;;11.56;100.00;155427.78;4884315;29;20036;-77
2022/08/09 02:29:17;;;;;;;3.45;2.88;;;;;;;11.55;100.00;155426.50;4915680;29;20025;-78
2022/08/09 02:31:45;;;;;;;4.43;2.60;;;;;;;11.51;100.00;155416.25;4914308;29;20060;-78
2022/08/09 02:34:14;;;;;;;5.50;3.03;;;;;;;11.52;100.00;155418.78;4891845;29;20040;-76
2022/08/09 02:36:44;;;;;;;4.03;2.75;;;;;;;11.53;100.00;155420.06;4897954;29;20063;-79
2022/08/09 02:39:15;;;;;;;9.32;2.72;;;;;;;11.52;100.00;155418.78;4931548;29;20032;-78
2022/08/09 02:41:44;;;;;;;6.72;2.67;;;;;;;11.54;100.00;155422.66;4912013;29;20046;-77
2022/08/09 02:44:15;;;;;;;7.15;2.63;;;;;;;11.49;100.00;155412.38;4895726;29;20063;-79
2022/08/09 02:46:43;;;;;;;5.47;2.80;;;;;;;11.42;100.00;155394.41;4916799;29;20143;-77
2022/08/09 02:49:11;;;;;;;2.85;2.60;;;;;;;11.46;100.00;155403.41;4930143;29;20072;-78
2022/08/09 02:51:40;;;;;;;5.15;2.78;;;;;;;11.45;100.00;155402.13;4917136;29;20040;-78
2022/08/09 02:54:09;;;;;;;3.88;2.70;;;;;;;11.40;100.00;155389.28;4892499;29;20064;-79
2022/08/09 02:56:36;;;;;;;3.97;2.70;;;;;;;11.31;100.00;155366.16;4913332;29;20051;-79
2022/08/09 02:59:04;;;;;;;6.30;2.60;;;;;;;11.29;100.00;155362.31;4931313;29;20049;-79
2022/08/09 03:01:31;;;;;;;6.05;2.80;;;;;;;11.35;100.00;155375.16;4895818;29;20422;-79
2022/08/09 03:04:00;;;;;;;5.32;2.78;;;;;;;11.35;100.00;155375.16;4913806;29;20039;-78
2022/08/09 03:06:27;;;;;;;5.65;2.80;;;;;;;11.37;100.00;155381.56;4930765;29;20036;-79
2022/08/09 03:08:53;;;;;;;9.35;3.08;;;;;;;11.35;100.00;155375.16;4915433;29;20044;-79
2022/08/09 03:11:22;;;;;;;7.10;2.80;;;;;;;11.26;100.00;155354.63;4914215;29;20075;-77
2022/08/09 03:13:49;;;;;;;7.45;2.95;;;;;;;11.19;100.00;155335.34;4898586;29;20040;-79
2022/08/09 03:16:18;;;;;;;3.13;2.83;;;;;;;11.15;100.00;155325.09;4913907;29;20157;-78
2022/08/09 03:18:45;;;;;;;4.30;3.10;;;;;;;11.13;100.00;155321.22;4927957;29;20048;-78
2022/08/09 03:21:11;;;;;;;6.05;3.03;;;;;;;11.13;100.00;155321.22;4895681;29;20142;-79
2022/08/09 03:23:37;;;;;;;3.10;2.67;;;;;;;11.07;100.00;155307.09;4890960;29;20152;-78
2022/08/09 03:26:03;;;;;;;6.53;2.90;;;;;;;11.12;100.00;155317.41;4894564;29;20032;-78
2022/08/09 03:28:31;;;;;;;4.82;2.92;;;;;;;11.03;100.00;155295.56;4916262;29;20043;-78
2022/08/09 03:30:58;;;;;;;4.28;2.95;;;;;;;11.05;100.00;155301.97;4891866;29;20036;-78
2022/08/09 03:33:25;;;;;;;5.88;3.08;;;;;;;11.06;100.00;155304.56;4897757;29;20039;-76
2022/08/09 03:35:51;;;;;;;4.20;3.58;;;;;;;11.09;100.00;155312.28;4911103;29;20428;-78
2022/08/09 03:38:17;;;;;;;7.28;3.50;;;;;;;11.08;100.00;155309.69;4894833;29;20130;-78
2022/08/09 03:40:43;;;;;;;4.28;3.25;;;;;;;11.09;100.00;155312.28;4898576;29;20036;-78
2022/08/09 03:43:08;;;;;;;5.60;3.33;;;;;;;11.06;100.00;155303.28;4894544;29;20079;-78
2022/08/09 03:45:35;;;;;;;5.95;3.10;;;;;;;10.99;100.00;155285.31;4896020;29;20036;-78
2022/08/09 03:48:04;;;;;;;5.60;3.40;;;;;;;11.18;100.00;155334.06;4913660;29;20491;-78
2022/08/09 03:50:31;;;;;;;5.88;3.70;;;;;;;11.25;100.00;155350.78;4907507;29;20114;-77
2022/08/09 03:53:01;;;;;;;5.65;3.97;;;;;;;11.28;100.00;155358.44;4914146;29;20032;-79
2022/08/09 03:55:26;;;;;;;5.20;3.88;;;;;;;11.20;100.00;155339.19;4899828;29;20431;-78
2022/08/09 03:57:52;;;;;;;5.05;3.83;;;;;;;11.21;100.00;155341.78;4898151;29;20039;-78
2022/08/09 04:00:18;;;;;;;6.97;4.05;;;;;;;11.24;100.00;155348.19;4912533;29;20518;-78
2022/08/09 04:02:46;;;;;;;6.28;3.85;;;;;;;11.18;100.00;155332.81;4897493;29;20375;-78
2022/08/09 04:05:12;;;;;;;8.35;4.20;;;;;;;11.18;100.00;155332.81;4928411;29;20050;-79
2022/08/09 04:07:38;;;;;;;5.95;3.80;;;;;;;11.11;100.00;155316.09;4902785;29;20079;-77
2022/08/09 04:10:04;;;;;;;6.07;4.43;;;;;;;11.15;100.00;155326.41;4913694;29;20060;-78
2022/08/09 04:12:41;;;;;;;6.28;4.65;;;;;;;11.14;100.00;155322.53;4914096;29;20040;-78
2022/08/09 04:15:07;;;;;;;8.23;5.25;;;;;;;11.18;100.00;155334.06;4905978;29;20126;-79
2022/08/09 04:17:33;;;;;;;6.32;4.28;;;;;;;11.22;100.00;155343.06;4915059;29;20536;-78
2022/08/09 04:19:59;;;;;;;5.38;4.30;;;;;;;11.26;100.00;155354.63;4929121;29;20028;-79
2022/08/09 04:22:24;;;;;;;11.57;4.80;;;;;;;11.33;100.00;155371.31;4897624;29;20032;-78
2022/08/09 04:24:50;;;;;;;7.60;4.95;;;;;;;11.30;100.00;155363.56;4893929;29;20062;-78
2022/08/09 04:27:16;;;;;;;9.07;5.30;;;;;;;11.33;100.00;155371.31;4901536;29;20035;-77
2022/08/09 04:29:42;;;;;;;7.85;5.45;;;;;;;11.27;100.00;155355.91;4894568;29;20041;-77
2022/08/09 04:32:08;;;;;;;12.57;5.55;;;;;;;11.39;100.00;155385.41;4912349;29;20103;-77
2022/08/09 04:34:33;;;;;;;7.05;5.65;;;;;;;11.42;100.00;155394.41;4912953;29;20031;-78
2022/08/09 04:37:00;;;;;;;7.10;5.38;;;;;;;11.47;100.00;155407.25;4897463;29;20028;-78
2022/08/09 04:39:25;;;;;;;7.80;5.20;;;;;;;11.48;100.00;155408.53;4912883;29;20067;-76
2022/08/09 04:41:51;;;;;;;9.20;5.93;;;;;;;11.55;100.00;155425.25;4900914;29;20065;-79
2022/08/09 04:44:17;;;;;;;8.43;5.93;;;;;;;11.58;100.00;155434.19;4912645;29;20040;-77
2022/08/09 04:46:43;;;;;;;6.32;5.72;;;;;;;11.58;100.00;155434.19;4912645;29;20510;-78
2022/08/09 04:49:08;;;;;;;9.25;5.10;;;;;;;11.61;100.00;155440.63;4897029;29;20035;-77
2022/08/09 04:51:34;;;;;;;7.97;5.68;;;;;;;11.68;100.00;155458.63;4917390;29;20035;-77
2022/08/09 04:54:00;;;;;;;8.45;5.78;;;;;;;11.76;100.00;155477.88;4908944;29;20036;-78
2022/08/09 04:56:26;;;;;;;12.73;6.15;;;;;;;11.80;100.00;155489.41;4890206;29;20036;-77
2022/08/09 04:58:51;;;;;;;10.40;6.32;;;;;;;11.90;100.00;155512.56;4913737;29;20039;-78
2022/08/09 05:01:17;;;;;;;7.75;5.78;;;;;;;11.91;100.00;155515.16;4896608;29;20087;-77
2022/08/09 05:03:42;;;;;;;12.15;6.40;;;;;;;11.97;100.00;155530.56;4903803;29;20033;-78
2022/08/09 05:06:10;;;;;;;9.48;5.63;;;;;;;12.08;100.00;155558.81;4909427;29;20203;-77
2022/08/09 05:08:35;;;;;;;7.15;5.63;;;;;;;12.15;100.00;155575.47;4909047;29;20042;-77
2022/08/09 05:11:01;;;;;;;9.13;5.78;;;;;;;12.43;100.00;155646.09;4913747;29;20035;-78
2022/08/09 05:13:27;;;;;;;7.22;5.53;;;;;;;12.60;100.00;155688.50;4912593;29;20557;-78
2022/08/09 05:15:53;;;;;;;10.70;5.15;;;;;;;12.64;100.00;155698.81;4896192;29;20036;-78
2022/08/09 05:18:18;;;;;;;8.23;5.20;;;;;;;12.76;100.00;155728.34;4897076;29;20040;-77
2022/08/09 05:20:44;;;;;;;9.10;5.25;;;;;;;12.93;100.00;155770.75;4901542;29;20040;-77
2022/08/09 05:23:09;;;;;;;9.35;5.05;;;;;;;13.01;100.00;155792.56;4896943;29;20125;-78
2022/08/09 05:25:35;;;;;;;7.07;5.20;;;;;;;13.15;100.00;155827.28;4920129;29;20044;-77
2022/08/09 05:28:01;;;;;;;7.85;4.78;;;;;;;13.25;100.00;155851.69;4932845;29;20109;-78
2022/08/09 05:30:26;;;;;;;7.75;4.85;;;;;;;13.32;100.00;155868.47;4917944;29;20040;-76
2022/08/09 05:32:52;;;;;;;8.52;4.78;;;;;;;13.43;100.00;155896.75;4912690;29;20059;-76
2022/08/09 05:35:19;;;;;;;6.80;4.72;;;;;;;13.49;100.00;155912.16;4916422;29;20479;-78
2022/08/09 05:37:44;;;;;;;8.07;4.32;;;;;;;13.59;100.00;155936.56;4932635;29;20043;-78
2022/08/09 05:40:11;;;;;;;7.57;4.47;;;;;;;13.72;100.00;155968.72;4900664;29;20028;-77
2022/08/09 05:42:37;;;;;;;6.78;4.50;;;;;;;13.79;100.00;155987.97;4932945;29;20072;-78
2022/08/09 05:45:03;;;;;;;9.70;4.40;;;;;;;13.97;100.00;156032.94;4901463;29;20036;-76
2022/08/09 05:47:29;;;;;;;7.50;4.22;;;;;;;14.06;100.00;156053.56;4900811;29;20192;-77
2022/08/09 05:49:55;;;;;;;6.57;3.60;;;;;;;14.15;100.00;156076.72;4913311;29;20951;-77
2022/08/09 05:52:24;;;;;;;5.13;3.78;;;;;;;14.26;100.00;156105.00;4899885;29;20143;-78
2022/08/09 05:54:50;;;;;;;5.93;3.78;;;;;;;14.35;100.00;156128.16;4896975;29;20569;-77
2022/08/09 05:57:16;;;;;;;9.68;3.70;;;;;;;14.52;100.00;156170.59;4885407;29;20040;-78
2022/08/09 05:59:42;;;;;;;6.63;3.80;;;;;;;14.73;100.00;156222.03;4917764;29;20043;-78
2022/08/09 06:02:08;;;;;;;6.18;3.85;;;;;;;14.80;100.00;156240.06;4916413;29;20114;-79
2022/08/09 06:04:35;;;;;;;8.90;4.30;;;;;;;14.83;100.00;156246.50;4898314;29;20082;-78
2022/08/09 06:07:01;;;;;;;7.25;4.15;;;;;;;14.87;100.00;156256.78;4918713;29;20172;-77
2022/08/09 06:09:28;;;;;;;6.72;4.28;;;;;;;15.01;100.00;156292.78;4906934;29;20056;-79
2022/08/09 06:11:54;;;;;;;9.85;4.85;;;;;;;15.12;100.00;156321.09;4915502;29;20028;-77
2022/08/09 06:14:19;;;;;;;9.07;4.60;;;;;;;15.23;100.00;156346.84;4900283;29;20083;-78
2022/08/09 06:16:45;;;;;;;13.15;5.45;;;;;;;15.24;100.00;156350.72;4915559;29;20048;-77
2022/08/09 06:19:13;;;;;;;7.60;4.68;;;;;;;15.37;100.00;156382.88;4911628;29;20134;-77
2022/08/09 06:21:40;;;;;;;7.85;4.32;;;;;;;15.49;100.00;156412.47;4911228;29;20517;-78
2022/08/09 06:24:05;;;;;;;7.28;4.40;;;;;;;15.61;100.00;156443.34;4911953;29;20083;-78
2022/08/09 06:26:33;;;;;;;8.80;4.35;;;;;;;15.71;100.00;156469.09;4899674;29;20044;-78
2022/08/09 06:28:59;;;;;;;5.93;3.92;;;;;;;15.88;100.00;156510.28;4883860;29;20035;-78
2022/08/09 06:31:25;;;;;;;6.70;3.97;;;;;;;16.04;100.00;156551.50;4896295;29;20127;-78
2022/08/09 06:33:50;;;;;;;12.48;3.88;;;;;;;16.12;100.00;156570.81;4907616;29;20032;-77
2022/08/09 06:36:16;;;;;;;5.50;3.20;;;;;;;16.27;100.00;156609.41;4914052;29;20040;-77
2022/08/09 06:38:43;;;;;;;6.82;4.18;;;;;;;16.27;100.00;156609.41;4895649;29;20040;-78
2022/08/09 06:41:08;;;;;;;10.60;3.80;;;;;;;16.43;100.00;156649.34;4911756;29;20036;-77
2022/08/09 06:43:34;;;;;;;8.43;3.90;;;;;;;16.52;100.00;156672.53;4916514;29;20036;-77
2022/08/09 06:45:59;;;;;;;6.65;3.33;;;;;;;16.56;100.00;156681.56;4917932;29;20392;-77
2022/08/09 06:48:25;;;;;;;6.13;3.22;;;;;;;16.78;100.00;156736.88;4919606;29;20044;-77
2022/08/09 06:50:52;;;;;;;10.13;3.70;;;;;;;16.83;100.00;156749.81;4903230;29;20047;-76
2022/08/09 06:53:18;;;;;;;6.55;3.08;;;;;;;17.02;100.00;156796.19;4920225;29;20044;-78
2022/08/09 06:55:44;;;;;;;8.48;3.10;;;;;;;17.15;100.00;156829.69;4902126;29;20119;-78
2022/08/09 06:58:09;;;;;;;5.43;3.40;;;;;;;17.38;100.00;156887.63;4917172;29;20032;-77
2022/08/09 07:00:35;;;;;;;6.28;3.20;;;;;;;17.50;100.00;156918.56;4901676;29;20122;-77
2022/08/09 07:03:02;;;;;;;9.98;3.75;;;;;;;17.35;100.00;156878.63;4918475;29;20035;-77
2022/08/09 07:05:28;;;;;;;7.72;4.18;;;;;;;17.39;100.00;156888.97;4892238;29;20558;-79
2022/08/09 07:07:54;;;;;;;8.68;4.13;;;;;;;17.47;100.00;156910.81;4917313;29;20024;-76
2022/08/09 07:10:20;;;;;;;5.95;3.80;;;;;;;17.43;100.00;156900.53;4908308;29;20035;-77
2022/08/09 07:12:46;;;;;;;7.63;3.70;;;;;;;17.50;100.00;156917.31;4915155;29;20402;-78
2022/08/09 07:15:12;;;;;;;9.55;4.10;;;;;;;17.45;100.00;156905.69;4891999;29;20032;-77
2022/08/09 07:17:38;;;;;;;7.35;3.85;;;;;;;17.44;100.00;156903.13;4898996;29;20128;-78
2022/08/09 07:20:04;;;;;;;8.35;3.70;;;;;;;17.66;100.00;156958.50;4909817;29;20031;-76
2022/08/09 07:22:30;;;;;;;8.77;3.60;;;;;;;17.95;100.00;157029.41;4896836;29;20036;-77
2022/08/09 07:24:55;;;;;;;7.43;2.70;;;;;;;18.14;100.00;157078.41;4900111;29;20032;-77
2022/08/09 07:27:20;;;;;;;5.05;3.17;;;;;;;18.38;100.00;157137.69;4914170;29;20091;-76
2022/08/09 07:29:46;;;;;;;7.88;2.83;;;;;;;18.36;100.00;157133.81;4882329;29;20047;-77
2022/08/09 07:32:12;;;;;;;6.40;2.78;;;;;;;18.38;100.00;157138.94;4907455;29;20051;-78
2022/08/09 07:34:37;;;;;;;5.88;2.63;;;;;;;18.53;100.00;157175.06;4897311;29;20051;-77
2022/08/09 07:37:03;;;;;;;5.75;2.50;;;;;;;18.64;100.00;157203.41;4910777;29;20032;-77
2022/08/09 07:39:29;;;;;;;5.68;2.30;;;;;;;18.80;99.53;157243.41;4927695;29;20032;-77
2022/08/09 07:41:55;;;;;;;6.53;2.47;;;;;;;18.95;99.67;157280.81;4910958;29;20088;-78
2022/08/09 07:44:20;;;;;;;7.28;2.58;;;;;;;19.09;98.05;157315.66;4913959;29;20036;-77
2022/08/09 07:46:46;;;;;;;5.25;2.42;;;;;;;19.28;96.58;157363.34;4913535;29;20040;-79
2022/08/09 07:49:12;;;;;;;5.07;2.42;;;;;;;19.47;97.87;157411.06;4913111;29;20491;-77
2022/08/09 07:51:38;;;;;;;7.30;2.42;;;;;;;19.55;95.69;157433.00;4918666;29;20075;-79
2022/08/09 07:54:04;;;;;;;8.45;2.55;;;;;;;19.45;98.12;157408.47;4914820;29;20083;-78
2022/08/09 07:56:30;;;;;;;4.82;2.30;;;;;;;19.70;95.62;157470.38;4914822;29;20047;-76
2022/08/09 07:58:55;;;;;;;10.68;2.50;;;;;;;19.74;93.56;157479.47;4914092;29;20114;-77
2022/08/09 08:01:21;;;;;;;11.30;2.50;;;;;;;19.60;93.77;157445.88;4915144;29;20676;-77
2022/08/09 08:03:46;;;;;;;4.65;2.25;;;;;;;19.77;97.22;157487.22;4914182;29;20076;-77
2022/08/09 08:06:12;;;;;;;6.85;2.33;;;;;;;19.80;93.95;157496.25;4909044;29;20082;-77
2022/08/09 08:08:37;;;;;;;7.65;2.10;;;;;;;20.00;91.77;157545.25;4911467;29;20511;-77
2022/08/09 08:11:03;;;;;;;4.47;2.10;;;;;;;20.22;92.33;157600.75;4893867;29;20040;-78
2022/08/09 08:13:29;;;;;;;5.78;2.20;;;;;;;20.31;90.38;157623.97;4914043;29;20040;-78
2022/08/09 08:15:55;;;;;;;5.85;2.40;;;;;;;20.39;90.32;157643.31;4913246;29;20034;-79
2022/08/09 08:18:21;;;;;;;4.40;1.83;;;;;;;20.42;89.68;157652.34;4912907;29;20142;-77
2022/08/09 08:20:46;;;;;;;6.47;2.30;;;;;;;20.55;87.05;157684.63;4916615;29;20072;-79
2022/08/09 08:23:12;;;;;;;6.30;1.77;;;;;;;20.52;89.11;157675.59;4893794;29;20099;-77
2022/08/09 08:25:38;;;;;;;2.58;1.83;;;;;;;20.73;87.19;157728.53;4885656;29;20044;-78
2022/08/09 08:28:04;;;;;;;4.93;1.73;;;;;;;20.80;86.20;157746.63;4913137;29;20075;-79
2022/08/09 08:30:30;;;;;;;4.93;1.70;;;;;;;20.82;87.64;157751.78;4913233;29;20047;-75
2022/08/09 08:32:56;;;;;;;7.15;1.55;;;;;;;20.83;82.75;157753.06;4907658;29;20091;-78
2022/08/09 08:35:22;;;;;;;3.92;1.55;;;;;;;20.79;83.82;157744.03;4912813;29;20055;-78
2022/08/09 08:37:49;;;;;;;6.45;1.70;;;;;;;20.92;82.29;157777.56;4882465;29;20502;-77
2022/08/09 08:40:15;;;;;;;3.17;1.27;;;;;;;20.98;81.56;157791.75;4913341;29;20509;-78
2022/08/09 08:42:42;;;;;;;6.55;1.40;;;;;;;21.24;80.21;157856.31;4897171;29;20122;-78
2022/08/09 08:45:10;;;;;;;5.22;1.10;;;;;;;21.37;81.37;157889.88;4897156;29;20059;-78
2022/08/09 08:47:36;;;;;;;2.17;1.00;;;;;;;21.51;74.73;157924.78;4909971;29;20439;-78
2022/08/09 08:50:02;;;;;;;2.83;1.15;;;;;;;21.62;79.95;157951.91;4896881;29;20083;-79
2022/08/09 08:52:29;;;;;;;10.27;1.60;;;;;;;21.64;79.99;157957.06;4920776;29;20028;-78
2022/08/09 08:54:56;;;;;;;5.35;1.60;;;;;;;21.66;78.77;157962.22;4929134;29;20039;-77
2022/08/09 08:57:23;;;;;;;6.68;1.40;;;;;;;21.86;80.19;158013.88;4914242;29;20604;-78
2022/08/09 08:59:49;;;;;;;5.50;1.50;;;;;;;21.93;78.08;158031.97;4919591;29;20043;-77
2022/08/09 09:02:28;;;;;;;3.08;1.30;;;;;;;21.82;78.02;158003.56;4893017;29;20036;-79
2022/08/09 09:04:57;;;;;;;2.17;1.30;;;;;;;21.80;77.38;157998.41;4897613;29;20039;-79
2022/08/09 09:07:24;;;;;;;3.78;1.20;;;;;;;21.86;80.12;158012.59;4891892;29;20047;-79
2022/08/09 09:09:52;;;;;;;3.63;1.30;;;;;;;22.09;76.86;158071.97;4912466;29;20048;-78
2022/08/09 09:12:20;;;;;;;4.13;1.00;;;;;;;22.29;75.91;158121.13;4911596;29;20039;-77
2022/08/09 09:14:47;;;;;;;3.15;1.10;;;;;;;22.54;75.34;158185.69;4913774;29;20075;-78
2022/08/09 09:17:13;;;;;;;2.78;0.80;;;;;;;22.64;71.06;158208.94;4910283;29;20196;-78
2022/08/09 09:19:40;;;;;;;4.68;1.20;;;;;;;22.66;69.90;158214.13;4880473;29;20104;-78
2022/08/09 09:22:14;;;;;;;3.05;0.82;;;;;;;22.71;69.76;158228.31;4905909;29;20032;-78
2022/08/09 09:24:54;;;;;;;4.25;1.13;;;;;;;22.73;70.80;158232.22;4885229;29;20040;-76
2022/08/09 09:27:26;;;;;;;3.92;1.30;;;;;;;22.56;71.62;158189.59;4896324;29;20099;-77
2022/08/09 09:29:53;;;;;;;3.80;1.40;;;;;;;22.48;74.08;158170.22;4919706;29;20032;-78
2022/08/09 09:32:24;;;;;;;6.72;1.40;;;;;;;22.69;75.29;158221.88;4893997;29;20118;-76
2022/08/09 09:35:08;;;;;;;3.95;1.60;;;;;;;22.81;72.67;158252.91;4916485;29;20518;-77
2022/08/09 09:37:35;;;;;;;2.42;1.30;;;;;;;22.85;72.84;158263.25;4909411;29;20047;-77
2022/08/09 09:40:00;;;;;;;8.18;1.40;;;;;;;22.84;74.55;158259.34;4911441;29;20038;-77
2022/08/09 09:42:31;;;;;;;2.97;1.35;;;;;;;23.02;72.30;158304.56;4893754;29;20097;-76
2022/08/09 09:44:58;;;;;;;2.60;1.13;;;;;;;22.99;71.26;158296.81;4909260;29;20115;-77
2022/08/09 09:47:26;;;;;;;6.90;1.38;;;;;;;22.89;70.73;158272.28;4926780;29;20506;-77
2022/08/09 09:49:53;;;;;;;4.60;1.30;;;;;;;22.99;73.86;158298.09;4903925;29;20073;-77
2022/08/09 09:52:20;;;;;;;2.78;1.48;;;;;;;22.86;73.71;158265.81;4908899;29;20070;-76
2022/08/09 09:54:46;;;;;;;7.05;2.28;;;;;;;23.04;71.53;158309.81;4912081;29;20039;-78
2022/08/09 09:57:20;;;;;;;3.00;1.42;;;;;;;23.01;70.85;158302.00;4892373;29;20028;-77
2022/08/09 09:59:47;;;;;;;3.70;1.60;;;;;;;23.36;71.39;158391.22;4894750;29;20563;-76
2022/08/09 10:02:13;;;;;;;1.40;0.80;;;;;;;23.64;70.66;158462.28;4908635;29;20040;-77
2022/08/09 10:04:39;;;;;;;4.25;1.20;;;;;;;23.78;68.55;158495.91;4909980;29;20169;-77
2022/08/09 10:07:23;;;;;;;6.75;1.35;;;;;;;23.77;66.15;158494.63;4897615;29;20048;-78
2022/08/09 10:09:52;;;;;;;4.57;1.20;;;;;;;23.67;65.73;158470.03;4912427;29;20500;-78
2022/08/09 10:12:29;;;;;;;2.92;0.98;;;;;;;23.71;65.94;158480.41;4913954;29;20028;-78
2022/08/09 10:15:14;;;;;;;1.88;0.93;;;;;;;23.71;66.78;158479.06;4912339;29;20032;-76
2022/08/09 10:17:42;;;;;;;3.78;1.20;;;;;;;23.77;66.79;158494.63;4909107;29;20067;-78
2022/08/09 10:20:20;;;;;;;5.32;1.38;;;;;;;23.78;66.70;158495.91;4916495;29;20039;-77
2022/08/09 10:22:48;;;;;;;3.85;1.10;;;;;;;23.77;66.80;158493.28;4915928;29;20051;-77
2022/08/09 10:25:14;;;;;;;4.95;1.50;;;;;;;23.60;68.66;158451.97;4891948;29;20051;-77
2022/08/09 10:27:45;;;;;;;4.65;1.40;;;;;;;23.52;74.74;158431.25;4884334;29;20137;-78
2022/08/09 10:30:11;;;;;;;1.38;0.88;;;;;;;23.38;72.98;158396.38;4915613;29;20103;-78
2022/08/09 10:32:38;;;;;;;5.80;1.30;;;;;;;23.40;67.94;158400.28;4915573;29;20044;-78
2022/08/09 10:35:04;;;;;;;5.30;1.20;;;;;;;23.40;66.77;158401.53;4896131;29;20085;-78
2022/08/09 10:37:30;;;;;;;3.67;0.90;;;;;;;23.61;70.12;158453.25;4884213;29;20043;-79
2022/08/09 10:39:57;;;;;;;2.10;0.95;;;;;;;23.96;66.60;158541.16;4911298;29;20154;-78
2022/08/09 10:42:24;;;;;;;3.90;1.10;;;;;;;24.33;65.02;158634.25;4907674;29;20447;-80
2022/08/09 10:45:02;;;;;;;4.80;0.80;;;;;;;24.35;65.24;158640.72;4914989;29;20040;-78
2022/08/09 10:47:36;;;;;;;4.50;1.27;;;;;;;24.41;63.00;158656.28;4915370;29;20124;-77
2022/08/09 10:50:01;;;;;;;3.40;1.17;;;;;;;24.54;63.90;158687.31;4914857;29;20046;-77
2022/08/09 10:53:03;;;;;;;1.77;0.90;;;;;;;24.59;65.04;158700.25;4892192;29;20048;-78
2022/08/09 10:55:31;;;;;;;3.13;1.37;;;;;;;24.31;68.22;158630.38;4908392;29;20158;-77
2022/08/09 10:57:57;;;;;;;1.98;1.17;;;;;;;23.78;64.86;158497.19;4899275;29;20770;-76
2022/08/09 11:00:52;;;;;;;3.63;1.30;;;;;;;23.84;65.14;158511.44;4915763;29;20040;-77
2022/08/09 11:03:23;;;;;;;4.28;1.20;;;;;;;23.72;71.31;158481.69;4899188;29;20047;-78
2022/08/09 11:06:14;;;;;;;2.72;1.05;;;;;;;23.55;72.67;158439.03;4931104;29;20055;-78
2022/08/09 11:08:42;;;;;;;5.85;1.40;;;;;;;23.48;67.01;158420.94;4910974;29;20055;-78
2022/08/09 11:11:08;;;;;;;2.55;0.90;;;;;;;23.43;73.62;158409.31;4914214;29;20082;-79
2022/08/09 11:13:34;;;;;;;2.33;1.10;;;;;;;23.50;66.08;158426.09;4898327;29;20131;-79
2022/08/09 11:16:33;;;;;;;4.22;1.10;;;;;;;23.68;69.45;158471.34;4907309;29;20032;-77
2022/08/09 11:18:59;;;;;;;2.25;1.00;;;;;;;23.74;64.35;158486.84;4910011;29;20138;-78
2022/08/09 11:21:52;;;;;;;2.08;0.98;;;;;;;24.11;65.98;158580.00;4914687;29;20574;-79
2022/08/09 11:24:18;;;;;;;3.45;1.27;;;;;;;24.23;60.57;158609.72;4907373;29;20056;-79
2022/08/09 11:26:47;;;;;;;3.42;1.02;;;;;;;23.78;63.82;158495.91;4900405;29;20051;-77